createdAt,value
2022-11-12T00:00:24.592Z,11.02
2022-11-12T00:03:11.037Z,11.75
2022-11-12T00:05:57.344Z,9.80
2022-11-12T00:08:43.572Z,10.75
2022-11-12T00:11:31.058Z,12.95
2022-11-12T00:14:17.118Z,13.48
2022-11-12T00:17:05.614Z,11.77
2022-11-12T00:19:52.115Z,10.20
2022-11-12T00:22:38.315Z,10.38
2022-11-12T00:25:24.647Z,10.15
2022-11-12T00:28:12.581Z,10.15
2022-11-12T00:30:58.736Z,13.90
2022-11-12T00:33:45.193Z,20.75
2022-11-12T00:36:31.764Z,13.45
2022-11-12T00:39:18.239Z,10.02
2022-11-12T00:42:04.891Z,10.80
2022-11-12T00:44:52.540Z,15.23
2022-11-12T00:47:38.770Z,10.45
2022-11-12T00:50:25.180Z,13.48
2022-11-12T00:53:11.880Z,13.32
2022-11-12T00:56:04.008Z,20.10
2022-11-12T00:58:50.162Z,30.02
2022-11-12T01:01:37.772Z,27.90
2022-11-12T01:04:23.887Z,22.00
2022-11-12T01:07:10.169Z,14.98
2022-11-12T01:09:56.665Z,21.60
2022-11-12T01:12:42.844Z,33.20
2022-11-12T01:15:29.056Z,34.00
2022-11-12T01:18:16.493Z,16.38
2022-11-12T01:21:03.352Z,14.85
2022-11-12T01:23:49.600Z,25.80
2022-11-12T01:26:36.705Z,22.67
2022-11-12T01:29:23.293Z,21.30
2022-11-12T01:32:09.805Z,26.35
2022-11-12T01:34:57.402Z,22.48
2022-11-12T01:37:43.636Z,34.60
2022-11-12T01:40:29.773Z,23.88
2022-11-12T01:43:15.958Z,19.15
2022-11-12T01:46:05.420Z,33.58
2022-11-12T01:48:56.761Z,24.02
2022-11-12T01:51:50.935Z,23.88
2022-11-12T01:54:37.705Z,45.80
2022-11-12T01:57:30.703Z,36.00
2022-11-12T02:00:20.736Z,35.55
2022-11-12T02:03:11.692Z,38.60
2022-11-12T02:06:01.741Z,32.55
2022-11-12T02:08:50.347Z,57.97
2022-11-12T02:11:36.543Z,27.52
2022-11-12T02:14:22.024Z,33.40
2022-11-12T02:17:08.354Z,24.13
2022-11-12T02:19:54.552Z,20.50
2022-11-12T02:22:42.090Z,18.10
2022-11-12T02:25:29.417Z,18.17
2022-11-12T02:28:17.212Z,16.65
2022-11-12T02:31:03.534Z,16.77
2022-11-12T02:33:49.693Z,16.75
2022-11-12T02:36:36.079Z,17.55
2022-11-12T02:39:23.697Z,27.15
2022-11-12T02:42:09.785Z,17.10
2022-11-12T02:44:56.121Z,19.33
2022-11-12T02:47:42.144Z,18.35
2022-11-12T02:50:28.302Z,17.92
2022-11-12T02:53:14.660Z,19.67
2022-11-12T02:56:02.643Z,20.27
2022-11-12T02:58:48.819Z,21.27
2022-11-12T03:01:35.043Z,22.80
2022-11-12T03:04:21.015Z,32.75
2022-11-12T03:07:07.308Z,44.47
2022-11-12T03:09:53.410Z,36.88
2022-11-12T03:12:40.829Z,29.95
2022-11-12T03:15:27.712Z,25.77
2022-11-12T03:18:14.088Z,23.77
2022-11-12T03:21:00.755Z,27.85
2022-11-12T03:23:47.153Z,24.88
2022-11-12T03:26:35.961Z,19.80
2022-11-12T03:29:23.824Z,21.42
2022-11-12T03:32:10.028Z,22.27
2022-11-12T03:34:56.199Z,29.67
2022-11-12T03:37:42.305Z,29.92
2022-11-12T03:40:28.550Z,22.83
2022-11-12T03:43:14.713Z,24.30
2022-11-12T03:46:02.085Z,24.08
2022-11-12T03:48:48.249Z,19.60
2022-11-12T03:51:34.392Z,19.67
2022-11-12T03:54:21.135Z,25.88
2022-11-12T03:57:07.665Z,46.50
2022-11-12T03:59:53.808Z,27.38
2022-11-12T04:02:41.982Z,17.92
2022-11-12T04:05:45.513Z,24.05
2022-11-12T04:08:37.563Z,21.58
2022-11-12T04:11:24.174Z,17.30
2022-11-12T04:14:10.459Z,23.85
2022-11-12T04:17:14.193Z,27.77
2022-11-12T04:20:19.400Z,24.73
2022-11-12T04:23:05.895Z,17.83
2022-11-12T04:26:09.479Z,16.27
2022-11-12T04:29:13.152Z,22.20
2022-11-12T04:31:59.475Z,26.40
2022-11-12T04:34:45.824Z,18.17
2022-11-12T04:37:45.237Z,22.80
2022-11-12T04:40:50.168Z,23.52
2022-11-12T04:43:54.057Z,21.13
2022-11-12T04:46:40.437Z,22.15
2022-11-12T04:49:26.705Z,21.02
2022-11-12T04:52:12.926Z,21.77
2022-11-12T04:55:01.447Z,22.80
2022-11-12T04:57:47.687Z,20.08
2022-11-12T05:00:33.979Z,20.80
2022-11-12T05:03:20.192Z,18.30
2022-11-12T05:06:27.891Z,20.45
2022-11-12T05:09:14.351Z,23.60
2022-11-12T05:12:04.931Z,26.23
2022-11-12T05:14:50.963Z,38.67
2022-11-12T05:17:37.116Z,34.67
2022-11-12T05:20:23.351Z,37.67
2022-11-12T05:23:09.404Z,32.63
2022-11-12T05:25:55.591Z,26.92
2022-11-12T05:28:42.984Z,29.33
2022-11-12T05:31:29.171Z,28.02
2022-11-12T05:34:19.978Z,29.13
2022-11-12T05:37:11.015Z,29.50
2022-11-12T05:39:57.187Z,24.00
2022-11-12T05:42:43.273Z,22.40
2022-11-12T05:45:30.912Z,25.13
2022-11-12T05:48:22.974Z,21.10
2022-11-12T05:51:14.037Z,21.88
2022-11-12T05:54:01.981Z,20.27
2022-11-12T05:56:48.681Z,22.85
2022-11-12T05:59:35.164Z,16.70
2022-11-12T06:02:22.748Z,22.60
2022-11-12T06:05:09.535Z,31.42
2022-11-12T06:07:56.025Z,27.00
2022-11-12T06:10:42.230Z,25.77
2022-11-12T06:13:28.367Z,29.73
2022-11-12T06:16:14.550Z,26.02
2022-11-12T06:19:02.252Z,29.52
2022-11-12T06:21:49.822Z,22.80
2022-11-12T06:24:36.725Z,26.55
2022-11-12T06:27:23.983Z,22.77
2022-11-12T06:30:11.032Z,19.30
2022-11-12T06:32:57.404Z,19.90
2022-11-12T06:35:44.914Z,20.45
2022-11-12T06:38:31.414Z,28.15
2022-11-12T06:41:17.828Z,22.08
2022-11-12T06:44:05.647Z,23.02
2022-11-12T06:46:51.959Z,44.80
2022-11-12T06:49:38.132Z,29.55
2022-11-12T06:52:25.699Z,24.63
2022-11-12T06:55:11.915Z,22.92
2022-11-12T06:57:58.052Z,23.75
2022-11-12T07:00:44.239Z,24.80
2022-11-12T07:03:30.404Z,26.63
2022-11-12T07:06:20.200Z,30.60
2022-11-12T07:09:08.463Z,30.48
2022-11-12T07:11:54.668Z,24.55
2022-11-12T07:14:40.942Z,23.83
2022-11-12T07:17:27.206Z,35.33
2022-11-12T07:20:13.893Z,30.35
2022-11-12T07:23:04.842Z,23.13
2022-11-12T07:25:58.601Z,23.38
2022-11-12T07:28:45.363Z,23.38
2022-11-12T07:31:31.586Z,20.83
2022-11-12T07:34:17.850Z,21.52
2022-11-12T07:37:03.904Z,23.88
2022-11-12T07:39:50.623Z,19.80
2022-11-12T07:42:38.263Z,20.23
2022-11-12T07:45:24.423Z,21.67
2022-11-12T07:48:10.635Z,18.15
2022-11-12T07:51:01.583Z,21.50
2022-11-12T07:53:48.961Z,18.83
2022-11-12T07:56:35.044Z,17.33
2022-11-12T07:59:22.530Z,19.42
2022-11-12T08:02:09.815Z,18.50
2022-11-12T08:04:55.886Z,18.40
2022-11-12T08:07:42.002Z,19.52
2022-11-12T08:10:28.740Z,17.45
2022-11-12T08:13:14.822Z,16.42
2022-11-12T08:16:02.529Z,18.52
2022-11-12T08:18:48.824Z,18.02
2022-11-12T08:21:34.960Z,20.10
2022-11-12T08:24:21.162Z,20.55
2022-11-12T08:27:07.450Z,20.27
2022-11-12T08:29:53.465Z,24.83
2022-11-12T08:32:40.944Z,22.85
2022-11-12T08:35:28.200Z,24.85
2022-11-12T08:38:14.233Z,26.25
2022-11-12T08:41:01.857Z,20.35
2022-11-12T08:43:48.351Z,22.45
2022-11-12T08:46:34.480Z,20.08
2022-11-12T08:49:21.945Z,20.02
2022-11-12T08:52:08.126Z,20.85
2022-11-12T08:54:54.208Z,21.63
2022-11-12T08:57:42.419Z,19.70
2022-11-12T09:00:29.228Z,18.17
2022-11-12T09:03:16.999Z,18.58
2022-11-12T09:06:06.452Z,18.20
2022-11-12T09:08:52.891Z,21.13
2022-11-12T09:11:39.408Z,19.30
2022-11-12T09:14:25.390Z,18.70
2022-11-12T09:17:11.653Z,17.05
2022-11-12T09:19:57.770Z,17.80
2022-11-12T09:22:45.351Z,17.88
2022-11-12T09:25:32.030Z,18.15
2022-11-12T09:28:19.660Z,17.27
2022-11-12T09:31:08.639Z,17.98
2022-11-12T09:33:54.751Z,16.83
2022-11-12T09:36:41.314Z,18.67
2022-11-12T09:39:29.008Z,16.73
2022-11-12T09:42:18.467Z,16.92
2022-11-12T09:45:08.715Z,17.75
2022-11-12T09:47:59.474Z,19.85
2022-11-12T09:50:55.756Z,18.08
2022-11-12T09:53:50.211Z,17.35
2022-11-12T09:56:38.100Z,16.23
2022-11-12T09:59:29.403Z,15.18
2022-11-12T10:02:28.552Z,16.38
2022-11-12T10:05:25.057Z,15.88
2022-11-12T10:08:29.220Z,16.38
2022-11-12T10:12:02.831Z,14.68
2022-11-12T10:15:19.054Z,16.33
2022-11-12T10:18:11.930Z,15.25
2022-11-12T10:21:05.749Z,15.38
2022-11-12T10:23:53.662Z,16.33
2022-11-12T10:26:41.249Z,15.70
2022-11-12T10:29:33.363Z,14.95
2022-11-12T10:32:21.118Z,15.30
2022-11-12T10:35:07.926Z,15.00
2022-11-12T10:38:00.055Z,17.73
2022-11-12T10:40:46.651Z,15.98
2022-11-12T10:43:32.758Z,16.58
2022-11-12T10:46:21.252Z,17.60
2022-11-12T10:49:23.950Z,14.63
2022-11-12T10:52:22.754Z,16.42
2022-11-12T10:55:17.471Z,16.92
2022-11-12T11:00:57.528Z,16.15
2022-11-12T11:03:48.463Z,16.30
2022-11-12T11:06:36.024Z,15.13
2022-11-12T11:09:22.634Z,17.20
2022-11-12T11:12:24.098Z,15.45
2022-11-12T11:15:21.237Z,13.77
2022-11-12T11:18:11.195Z,13.90
2022-11-12T11:21:07.453Z,14.35
2022-11-12T11:23:58.155Z,14.52
2022-11-12T11:26:55.498Z,15.88
2022-11-12T11:30:01.317Z,13.52
2022-11-12T11:33:25.180Z,14.27
2022-11-12T11:36:20.519Z,14.38
2022-11-12T11:39:19.321Z,15.55
2022-11-12T11:42:22.417Z,14.15
2022-11-12T11:45:17.879Z,14.60
2022-11-12T11:48:14.483Z,13.50
2022-11-12T11:51:08.518Z,12.95
2022-11-12T11:54:07.345Z,13.15
2022-11-12T11:56:59.274Z,14.25
2022-11-12T12:00:02.644Z,12.35
2022-11-12T12:03:17.674Z,14.15
2022-11-12T12:06:13.507Z,13.07
2022-11-12T12:09:14.025Z,11.75
2022-11-12T12:12:13.084Z,11.57
2022-11-12T12:15:20.096Z,11.05
2022-11-12T12:18:13.413Z,12.30
2022-11-12T12:21:04.455Z,13.70
2022-11-12T12:23:54.546Z,12.00
2022-11-12T12:26:45.754Z,9.43
2022-11-12T12:29:40.346Z,11.25
2022-11-12T12:32:31.893Z,9.38
2022-11-12T12:35:25.092Z,11.15
2022-11-12T12:38:17.286Z,12.77
2022-11-12T12:41:12.496Z,10.07
2022-11-12T12:44:04.635Z,9.73
2022-11-12T12:46:57.838Z,11.50
2022-11-12T12:49:47.041Z,10.75
2022-11-12T12:53:01.097Z,9.68
2022-11-12T12:55:49.326Z,9.93
2022-11-12T12:58:44.519Z,12.57
2022-11-12T13:01:34.106Z,11.10
2022-11-12T13:04:53.400Z,10.85
2022-11-12T13:07:43.207Z,10.38
2022-11-12T13:10:51.538Z,9.75
2022-11-12T13:13:39.102Z,10.70
2022-11-12T13:16:59.203Z,10.18
2022-11-12T13:19:48.178Z,9.63
2022-11-12T13:22:50.537Z,11.80
2022-11-12T13:25:37.634Z,10.48
2022-11-12T13:28:24.294Z,8.90
2022-11-12T13:31:26.724Z,9.15
2022-11-12T13:34:20.557Z,11.60
2022-11-12T13:37:13.970Z,10.10
2022-11-12T13:40:05.008Z,11.43
2022-11-12T13:42:52.204Z,11.48
2022-11-12T13:45:43.397Z,10.82
2022-11-12T13:48:31.956Z,11.48
2022-11-12T13:51:24.087Z,12.50
2022-11-12T13:54:32.728Z,12.02
2022-11-12T13:57:31.836Z,14.35
2022-11-12T14:00:27.574Z,15.32
2022-11-12T14:03:19.335Z,15.88
2022-11-12T14:06:15.703Z,14.70
2022-11-12T14:09:22.275Z,21.73
2022-11-12T14:12:40.292Z,26.90
2022-11-12T14:15:36.633Z,23.63
2022-11-12T14:18:31.832Z,22.15
2022-11-12T14:21:19.588Z,19.33
2022-11-12T14:24:06.789Z,16.67
2022-11-12T14:26:53.192Z,15.77
2022-11-12T14:29:43.660Z,17.30
2022-11-12T14:32:36.807Z,14.95
2022-11-12T14:35:35.501Z,15.27
2022-11-12T14:38:24.503Z,16.38
2022-11-12T14:41:16.926Z,14.77
2022-11-12T14:44:13.171Z,15.23
2022-11-12T14:47:00.935Z,15.57
2022-11-12T14:49:50.936Z,16.63
2022-11-12T14:52:42.851Z,15.75
2022-11-12T14:55:32.922Z,17.58
2022-11-12T14:58:21.510Z,14.45
2022-11-12T15:02:13.826Z,14.75
2022-11-12T15:04:39.695Z,14.90
2022-11-12T15:07:27.934Z,14.43
2022-11-12T15:10:32.241Z,14.88
2022-11-12T15:13:20.962Z,13.85
2022-11-12T15:16:09.096Z,14.43
2022-11-12T15:19:05.930Z,18.85
2022-11-12T15:21:55.284Z,15.75
2022-11-12T15:24:43.936Z,16.55
2022-11-12T15:27:37.005Z,19.08
2022-11-12T15:30:26.135Z,17.10
2022-11-12T15:33:19.932Z,17.85
2022-11-12T15:36:06.673Z,17.02
2022-11-12T15:38:55.692Z,21.52
2022-11-12T15:41:42.322Z,19.77
2022-11-12T15:44:34.506Z,18.65
2022-11-12T15:47:22.555Z,18.45
2022-11-12T15:50:17.693Z,19.08
2022-11-12T15:53:04.096Z,19.42
2022-11-12T15:55:53.256Z,20.25
2022-11-12T15:58:40.502Z,19.67
2022-11-12T16:01:26.945Z,16.35
2022-11-12T16:04:14.417Z,16.88
2022-11-12T16:07:00.895Z,14.07
2022-11-12T16:09:47.318Z,14.80
2022-11-12T16:12:34.940Z,16.25
2022-11-12T16:15:25.388Z,14.90
2022-11-12T16:18:12.721Z,13.52
2022-11-12T16:20:59.023Z,13.13
2022-11-12T16:23:45.664Z,17.23
2022-11-12T16:26:33.302Z,16.17
2022-11-12T16:29:21.055Z,13.85
2022-11-12T16:32:07.482Z,13.80
2022-11-12T16:34:58.343Z,14.77
2022-11-12T16:37:48.122Z,13.80
2022-11-12T16:40:34.467Z,14.98
2022-11-12T16:43:20.463Z,12.13
2022-11-12T16:46:16.294Z,15.18
2022-11-12T16:49:03.293Z,13.07
2022-11-12T16:51:49.546Z,15.15
2022-11-12T16:54:35.645Z,15.73
2022-11-12T16:57:21.827Z,13.18
2022-11-12T17:00:12.003Z,15.70
2022-11-12T17:02:59.573Z,15.75
2022-11-12T17:05:45.707Z,17.73
2022-11-12T17:08:34.084Z,16.25
2022-11-12T17:11:20.912Z,13.73
2022-11-12T17:14:07.801Z,14.98
2022-11-12T17:16:54.188Z,14.60
2022-11-12T17:19:41.805Z,15.63
2022-11-12T17:22:27.879Z,16.35
2022-11-12T17:25:14.146Z,17.08
2022-11-12T17:28:00.446Z,14.75
2022-11-12T17:30:46.620Z,15.85
2022-11-12T17:33:32.853Z,21.10
2022-11-12T17:36:21.935Z,18.65
2022-11-12T17:39:11.896Z,17.85
2022-11-12T17:42:01.729Z,17.13
2022-11-12T17:44:48.787Z,18.08
2022-11-12T17:47:40.176Z,17.40
2022-11-12T17:50:27.329Z,17.30
2022-11-12T17:53:15.719Z,14.75
2022-11-12T17:56:02.431Z,15.05
2022-11-12T17:58:49.669Z,15.93
2022-11-12T18:01:36.082Z,17.95
2022-11-12T18:04:23.805Z,14.20
2022-11-12T18:07:10.504Z,14.70
2022-11-12T18:09:58.067Z,15.65
2022-11-12T18:12:44.188Z,14.65
2022-11-12T18:15:32.227Z,13.93
2022-11-12T18:18:19.755Z,15.82
2022-11-12T18:21:06.222Z,19.20
2022-11-12T18:23:52.393Z,14.30
2022-11-12T18:26:40.093Z,16.88
2022-11-12T18:29:26.436Z,17.02
2022-11-12T18:32:12.668Z,17.42
2022-11-12T18:34:58.757Z,16.20
2022-11-12T18:37:45.729Z,15.88
2022-11-12T18:40:31.924Z,16.08
2022-11-12T18:43:19.442Z,15.00
2022-11-12T18:46:06.664Z,15.30
2022-11-12T18:48:52.850Z,22.83
2022-11-12T18:51:39.506Z,57.25
2022-11-12T18:54:26.019Z,62.13
2022-11-12T18:57:12.243Z,62.42
2022-11-12T18:59:59.819Z,47.75
2022-11-12T19:02:46.916Z,32.88
2022-11-12T19:05:33.312Z,32.85
2022-11-12T19:08:19.577Z,32.35
2022-11-12T19:11:08.548Z,40.72
2022-11-12T19:13:56.200Z,54.70
2022-11-12T19:16:44.691Z,47.63
2022-11-12T19:19:31.070Z,63.97
2022-11-12T19:22:17.315Z,79.13
2022-11-12T19:25:03.601Z,112.70
2022-11-12T19:27:49.920Z,98.55
2022-11-12T19:30:36.030Z,92.85
2022-11-12T19:33:23.748Z,94.30
2022-11-12T19:36:12.941Z,112.65
2022-11-12T19:39:02.560Z,101.32
2022-11-12T19:41:49.091Z,74.18
2022-11-12T19:44:35.277Z,63.65
2022-11-12T19:47:21.531Z,56.70
2022-11-12T19:50:09.829Z,54.45
2022-11-12T19:52:56.355Z,58.53
2022-11-12T19:55:42.540Z,69.70
2022-11-12T19:58:29.717Z,67.53
2022-11-12T20:01:18.267Z,61.80
2022-11-12T20:04:05.047Z,53.97
2022-11-12T20:06:52.658Z,46.83
2022-11-12T20:09:39.265Z,52.03
2022-11-12T20:12:25.717Z,52.22
2022-11-12T20:15:12.217Z,54.30
2022-11-12T20:17:58.369Z,50.35
2022-11-12T20:20:47.440Z,43.63
2022-11-12T20:23:35.043Z,39.53
2022-11-12T20:26:21.567Z,49.88
2022-11-12T20:29:10.030Z,45.80
2022-11-12T20:31:56.510Z,82.03
2022-11-12T20:34:42.623Z,56.85
2022-11-12T20:37:30.600Z,52.55
2022-11-12T20:40:18.723Z,47.38
2022-11-12T20:43:04.901Z,45.90
2022-11-12T20:45:51.620Z,43.22
2022-11-12T20:48:42.837Z,41.08
2022-11-12T20:51:30.315Z,36.00
2022-11-12T20:54:16.639Z,32.95
2022-11-12T20:57:04.446Z,31.48
2022-11-12T20:59:51.640Z,31.83
2022-11-12T21:02:38.028Z,28.67
2022-11-12T21:05:24.242Z,27.75
2022-11-12T21:08:10.453Z,23.92
2022-11-12T21:10:57.792Z,23.45
2022-11-12T21:13:45.289Z,24.98
2022-11-12T21:16:31.490Z,22.20
2022-11-12T21:19:17.849Z,22.05
2022-11-12T21:22:04.245Z,22.13
2022-11-12T21:24:50.436Z,20.35
2022-11-12T21:27:36.605Z,21.73
2022-11-12T21:30:24.047Z,25.13
2022-11-12T21:33:10.167Z,23.45
2022-11-12T21:35:56.376Z,21.55
2022-11-12T21:38:42.623Z,23.70
2022-11-12T21:41:31.945Z,22.17
2022-11-12T21:44:18.265Z,23.85
2022-11-12T21:47:05.943Z,22.42
2022-11-12T21:49:52.310Z,25.95
2022-11-12T21:52:38.663Z,30.52
2022-11-12T21:55:24.819Z,34.33
2022-11-12T21:58:10.904Z,41.30
2022-11-12T22:00:57.461Z,42.30
2022-11-12T22:03:45.684Z,41.88
2022-11-12T22:06:31.858Z,41.03
2022-11-12T22:09:18.245Z,38.42
2022-11-12T22:12:04.515Z,38.35
2022-11-12T22:14:50.965Z,39.35
2022-11-12T22:17:37.293Z,44.00
2022-11-12T22:20:24.756Z,40.75
2022-11-12T22:23:10.877Z,37.40
2022-11-12T22:25:58.111Z,45.17
2022-11-12T22:28:44.711Z,43.42
2022-11-12T22:31:32.684Z,40.92
2022-11-12T22:34:19.073Z,42.22
2022-11-12T22:37:06.586Z,40.67
2022-11-12T22:39:52.668Z,41.53
2022-11-12T22:42:38.905Z,39.13
2022-11-12T22:45:26.193Z,36.85
2022-11-12T22:48:12.367Z,43.47
2022-11-12T22:51:00.684Z,45.08
2022-11-12T22:53:47.253Z,48.15
2022-11-12T22:56:34.237Z,39.00
2022-11-12T22:59:20.699Z,39.38
2022-11-12T23:02:08.185Z,41.90
2022-11-12T23:04:54.394Z,44.20
2022-11-12T23:07:40.648Z,42.15
2022-11-12T23:10:26.765Z,44.35
2022-11-12T23:13:12.922Z,43.35
2022-11-12T23:15:59.494Z,43.60
2022-11-12T23:18:47.784Z,47.35
2022-11-12T23:21:34.228Z,42.25
2022-11-12T23:24:20.600Z,46.13
2022-11-12T23:27:06.937Z,41.75
2022-11-12T23:29:53.037Z,45.17
2022-11-12T23:32:39.372Z,47.63
2022-11-12T23:35:27.126Z,52.40
2022-11-12T23:38:13.700Z,49.13
2022-11-12T23:41:00.094Z,50.35
2022-11-12T23:43:46.691Z,44.78
2022-11-12T23:46:33.316Z,43.47
2022-11-12T23:49:19.466Z,47.20
2022-11-12T23:52:06.986Z,49.42
2022-11-12T23:54:53.439Z,48.33
2022-11-12T23:57:39.585Z,51.42
